createdAt,value
2023-05-05T00:01:26.957Z,101447.66
2023-05-05T00:03:53.623Z,101431.91
2023-05-05T00:06:20.201Z,101442.00
2023-05-05T00:08:47.137Z,101440.53
2023-05-05T00:11:13.597Z,101439.47
2023-05-05T00:13:40.156Z,101447.69
2023-05-05T00:16:06.960Z,101449.31
2023-05-05T00:18:33.834Z,101439.06
2023-05-05T00:21:00.279Z,101442.91
2023-05-05T00:23:26.792Z,101432.94
2023-05-05T00:25:53.357Z,101429.84
2023-05-05T00:28:19.997Z,101432.81
2023-05-05T00:30:46.647Z,101430.56
2023-05-05T00:33:13.259Z,101431.75
2023-05-05T00:35:39.834Z,101417.34
2023-05-05T00:38:07.005Z,101417.34
2023-05-05T00:40:33.640Z,101422.69
2023-05-05T00:43:00.172Z,101438.00
2023-05-05T00:45:26.876Z,101441.56
2023-05-05T00:47:55.006Z,101445.28
2023-05-05T00:50:27.002Z,101457.91
2023-05-05T00:52:56.145Z,101456.88
2023-05-05T00:55:22.815Z,101452.41
2023-05-05T00:57:49.690Z,101453.88
2023-05-05T01:00:16.798Z,101447.78
2023-05-05T01:02:44.113Z,101435.91
2023-05-05T01:05:13.256Z,101437.84
2023-05-05T01:08:02.772Z,101433.66
2023-05-05T01:10:45.033Z,101434.41
2023-05-05T01:13:32.132Z,101434.84
2023-05-05T01:16:14.816Z,101433.38
2023-05-05T01:18:44.078Z,101442.88
2023-05-05T01:21:23.401Z,101442.75
2023-05-05T01:24:17.783Z,101443.34
2023-05-05T01:27:05.737Z,101448.13
2023-05-05T01:29:35.726Z,101444.09
2023-05-05T01:32:10.583Z,101454.97
2023-05-05T01:34:43.827Z,101457.91
2023-05-05T01:37:18.203Z,101457.47
2023-05-05T01:39:51.370Z,101460.44
2023-05-05T01:42:20.038Z,101456.59
2023-05-05T01:44:48.207Z,101448.84
2023-05-05T01:47:18.527Z,101453.75
2023-05-05T01:49:47.248Z,101464.78
2023-05-05T01:52:16.134Z,101463.59
2023-05-05T01:54:45.103Z,101471.91
2023-05-05T01:57:12.794Z,101491.25
2023-05-05T01:59:39.926Z,101491.56
2023-05-05T02:02:10.130Z,101499.16
2023-05-05T02:04:41.036Z,101494.09
2023-05-05T02:07:08.763Z,101486.81
2023-05-05T02:09:36.988Z,101468.34
2023-05-05T02:12:05.156Z,101445.28
2023-05-05T02:14:32.764Z,101444.41
2023-05-05T02:17:01.331Z,101433.97
2023-05-05T02:19:31.850Z,101428.19
2023-05-05T02:21:58.464Z,101440.09
2023-05-05T02:24:26.491Z,101461.34
2023-05-05T02:26:56.577Z,101468.19
2023-05-05T02:29:34.314Z,101457.03
2023-05-05T02:32:14.202Z,101461.06
2023-05-05T02:34:42.791Z,101455.84
2023-05-05T02:37:19.634Z,101456.28
2023-05-05T02:40:01.941Z,101457.19
2023-05-05T02:42:36.720Z,101460.03
2023-05-05T02:45:10.831Z,101450.34
2023-05-05T02:47:40.755Z,101448.69
2023-05-05T02:50:08.940Z,101459.69
2023-05-05T02:52:38.015Z,101453.44
2023-05-05T02:55:05.816Z,101449.09
2023-05-05T02:58:13.882Z,101447.47
2023-05-05T03:00:46.169Z,101444.63
2023-05-05T03:03:22.157Z,101445.94
2023-05-05T03:06:13.840Z,101450.09
2023-05-05T03:09:01.579Z,101457.81
2023-05-05T03:11:44.329Z,101463.41
2023-05-05T03:14:17.171Z,101452.13
2023-05-05T03:16:46.401Z,101462.19
2023-05-05T03:19:15.742Z,101467.38
2023-05-05T03:21:43.075Z,101469.41
2023-05-05T03:24:19.096Z,101472.97
2023-05-05T03:26:54.419Z,101475.03
2023-05-05T03:29:25.314Z,101477.38
2023-05-05T03:31:52.573Z,101486.72
2023-05-05T03:34:19.252Z,101493.38
2023-05-05T03:36:47.673Z,101485.47
2023-05-05T03:39:15.736Z,101474.03
2023-05-05T03:41:42.201Z,101469.56
2023-05-05T03:44:10.482Z,101457.09
2023-05-05T03:46:37.356Z,101475.94
2023-05-05T03:49:07.125Z,101478.75
2023-05-05T03:51:33.776Z,101483.34
2023-05-05T03:54:00.234Z,101486.13
2023-05-05T03:56:27.004Z,101502.28
2023-05-05T03:58:53.548Z,101509.25
2023-05-05T04:01:20.534Z,101512.34
2023-05-05T04:03:47.216Z,101502.09
2023-05-05T04:06:13.808Z,101513.84
2023-05-05T04:08:41.337Z,101523.34
2023-05-05T04:11:07.951Z,101526.31
2023-05-05T04:13:35.015Z,101530.59
2023-05-05T04:16:02.500Z,101535.94
2023-05-05T04:18:29.523Z,101538.63
2023-05-05T04:20:56.454Z,101545.16
2023-05-05T04:23:23.245Z,101544.50
2023-05-05T04:25:50.464Z,101548.38
2023-05-05T04:28:19.053Z,101550.28
2023-05-05T04:30:47.133Z,101550.28
2023-05-05T04:33:13.755Z,101555.94
2023-05-05T04:35:40.611Z,101562.34
2023-05-05T04:38:07.075Z,101564.59
2023-05-05T04:40:33.748Z,101569.06
2023-05-05T04:43:01.301Z,101565.97
2023-05-05T04:45:28.941Z,101566.41
2023-05-05T04:47:55.751Z,101558.81
2023-05-05T04:50:22.460Z,101567.56
2023-05-05T04:52:50.773Z,101574.28
2023-05-05T04:55:19.129Z,101578.66
2023-05-05T04:57:45.632Z,101578.81
2023-05-05T05:00:12.693Z,101570.63
2023-05-05T05:02:39.277Z,101584.56
2023-05-05T05:05:06.289Z,101578.72
2023-05-05T05:07:33.050Z,101593.94
2023-05-05T05:09:59.514Z,101596.19
2023-05-05T05:12:26.048Z,101589.69
2023-05-05T05:14:52.510Z,101590.94
2023-05-05T05:17:20.471Z,101590.63
2023-05-05T05:19:47.128Z,101588.75
2023-05-05T05:22:13.774Z,101596.13
2023-05-05T05:24:42.325Z,101600.41
2023-05-05T05:27:11.826Z,101595.22
2023-05-05T05:29:41.440Z,101597.22
2023-05-05T05:32:08.143Z,101598.56
2023-05-05T05:34:35.093Z,101601.75
2023-05-05T05:37:02.655Z,101599.44
2023-05-05T05:39:29.350Z,101607.81
2023-05-05T05:41:56.021Z,101605.72
2023-05-05T05:44:23.127Z,101614.84
2023-05-05T05:46:49.641Z,101618.56
2023-05-05T05:49:17.223Z,101620.50
2023-05-05T05:51:43.666Z,101621.44
2023-05-05T05:54:10.195Z,101624.56
2023-05-05T05:56:36.890Z,101623.91
2023-05-05T05:59:04.824Z,101616.84
2023-05-05T06:01:31.600Z,101617.97
2023-05-05T06:03:58.297Z,101613.47
2023-05-05T06:06:24.983Z,101616.84
2023-05-05T06:08:51.472Z,101625.66
2023-05-05T06:11:18.299Z,101616.03
2023-05-05T06:13:44.950Z,101612.63
2023-05-05T06:16:14.303Z,101607.97
2023-05-05T06:18:43.866Z,101605.75
2023-05-05T06:21:10.368Z,101610.16
2023-05-05T06:23:37.006Z,101609.38
2023-05-05T06:26:06.260Z,101615.44
2023-05-05T06:28:32.789Z,101623.75
2023-05-05T06:30:59.432Z,101622.88
2023-05-05T06:33:25.984Z,101628.03
2023-05-05T06:35:53.144Z,101625.53
2023-05-05T06:38:19.906Z,101626.66
2023-05-05T06:40:49.927Z,101627.63
2023-05-05T06:43:17.212Z,101622.16
2023-05-05T06:45:51.072Z,101635.50
2023-05-05T06:48:18.473Z,101636.22
2023-05-05T06:50:45.091Z,101637.47
2023-05-05T06:53:11.703Z,101636.00
2023-05-05T06:55:38.180Z,101644.09
2023-05-05T06:58:04.666Z,101645.69
2023-05-05T07:00:31.646Z,101637.66
2023-05-05T07:02:58.371Z,101644.13
2023-05-05T07:05:24.957Z,101655.66
2023-05-05T07:07:52.657Z,101650.16
2023-05-05T07:10:19.735Z,101649.09
2023-05-05T07:12:46.748Z,101654.00
2023-05-05T07:15:26.926Z,101655.03
2023-05-05T07:17:55.025Z,101646.09
2023-05-05T07:20:21.623Z,101647.66
2023-05-05T07:22:48.209Z,101646.19
2023-05-05T07:25:14.727Z,101651.84
2023-05-05T07:27:41.418Z,101648.22
2023-05-05T07:30:13.012Z,101656.97
2023-05-05T07:32:41.074Z,101657.81
2023-05-05T07:35:07.784Z,101664.81
2023-05-05T07:37:34.411Z,101659.75
2023-05-05T07:40:00.883Z,101662.78
2023-05-05T07:42:27.505Z,101657.84
2023-05-05T07:44:53.991Z,101658.59
2023-05-05T07:47:20.838Z,101657.59
2023-05-05T07:49:47.426Z,101658.38
2023-05-05T07:52:13.875Z,101668.16
2023-05-05T07:54:41.235Z,101668.66
2023-05-05T07:57:08.160Z,101660.34
2023-05-05T07:59:35.185Z,101660.50
2023-05-05T08:02:01.692Z,101655.66
2023-05-05T08:04:28.190Z,101656.88
2023-05-05T08:06:54.676Z,101663.53
2023-05-05T08:09:21.201Z,101660.88
2023-05-05T08:11:47.708Z,101664.09
2023-05-05T08:14:15.075Z,101672.97
2023-05-05T08:16:41.596Z,101667.06
2023-05-05T08:19:21.053Z,101673.41
2023-05-05T08:21:51.721Z,101673.69
2023-05-05T08:24:18.333Z,101672.47
2023-05-05T08:26:44.809Z,101662.09
2023-05-05T08:29:11.321Z,101668.97
2023-05-05T08:31:38.036Z,101665.75
2023-05-05T08:34:05.654Z,101658.88
2023-05-05T08:36:33.119Z,101667.75
2023-05-05T08:38:59.876Z,101669.50
2023-05-05T08:41:26.653Z,101681.81
2023-05-05T08:43:53.296Z,101679.34
2023-05-05T08:46:20.126Z,101680.78
2023-05-05T08:48:48.859Z,101682.22
2023-05-05T08:51:19.439Z,101685.66
2023-05-05T08:53:55.305Z,101686.69
2023-05-05T08:56:22.328Z,101676.59
2023-05-05T08:58:50.863Z,101686.72
2023-05-05T09:01:18.334Z,101690.13
2023-05-05T09:03:46.205Z,101694.31
2023-05-05T09:06:13.072Z,101684.22
2023-05-05T09:08:40.330Z,101688.88
2023-05-05T09:11:06.872Z,101686.88
2023-05-05T09:13:33.473Z,101690.31
2023-05-05T09:16:00.308Z,101681.47
2023-05-05T09:18:27.177Z,101689.81
2023-05-05T09:20:53.674Z,101684.41
2023-05-05T09:23:21.360Z,101675.56
2023-05-05T09:26:10.623Z,101679.50
2023-05-05T09:28:37.439Z,101678.28
2023-05-05T09:31:15.788Z,101692.56
2023-05-05T09:33:43.416Z,101690.09
2023-05-05T09:36:09.999Z,101682.44
2023-05-05T09:38:36.761Z,101686.63
2023-05-05T09:41:03.286Z,101686.09
2023-05-05T09:43:29.712Z,101682.06
2023-05-05T09:46:09.683Z,101676.13
2023-05-05T09:48:36.298Z,101678.78
2023-05-05T09:51:02.976Z,101674.78
2023-05-05T09:53:38.886Z,101673.50
2023-05-05T09:56:05.916Z,101668.59
2023-05-05T09:58:32.463Z,101671.63
2023-05-05T10:00:59.154Z,101672.81
2023-05-05T10:03:26.119Z,101668.81
2023-05-05T10:05:55.569Z,101672.78
2023-05-05T10:08:27.817Z,101669.06
2023-05-05T10:11:06.738Z,101674.19
2023-05-05T10:13:37.352Z,101688.84
2023-05-05T10:16:04.912Z,101714.91
2023-05-05T10:18:32.445Z,101734.31
2023-05-05T10:21:01.192Z,101753.22
2023-05-05T10:23:35.907Z,101699.84
2023-05-05T10:26:06.267Z,101705.50
2023-05-05T10:28:50.438Z,101720.78
2023-05-05T10:31:25.638Z,101708.06
2023-05-05T10:34:31.422Z,101716.69
2023-05-05T10:37:00.303Z,101707.66
2023-05-05T10:39:27.816Z,101704.41
2023-05-05T10:41:54.281Z,101705.09
2023-05-05T10:44:22.244Z,101711.66
2023-05-05T10:46:49.316Z,101711.69
2023-05-05T10:49:33.928Z,101717.34
2023-05-05T10:52:18.682Z,101716.16
2023-05-05T10:55:11.278Z,101711.00
2023-05-05T10:57:41.737Z,101707.94
2023-05-05T11:00:09.216Z,101716.19
2023-05-05T11:02:36.175Z,101735.28
2023-05-05T11:05:17.935Z,101743.22
2023-05-05T11:07:46.366Z,101749.66
2023-05-05T11:10:14.937Z,101735.59
2023-05-05T11:13:10.934Z,101737.53
2023-05-05T11:15:38.046Z,101745.00
2023-05-05T11:18:07.909Z,101740.50
2023-05-05T11:20:40.796Z,101742.28
2023-05-05T11:23:07.486Z,101736.47
2023-05-05T11:25:37.564Z,101729.75
2023-05-05T11:28:08.323Z,101732.59
2023-05-05T11:30:53.996Z,101733.97
2023-05-05T11:33:28.440Z,101741.72
2023-05-05T11:35:56.495Z,101750.06
2023-05-05T11:38:55.593Z,101760.81
2023-05-05T11:41:34.073Z,101758.56
2023-05-05T11:44:18.074Z,101758.13
2023-05-05T11:46:53.466Z,101758.56
2023-05-05T11:49:37.110Z,101752.47
2023-05-05T11:52:12.578Z,101757.81
2023-05-05T11:54:50.112Z,101753.94
2023-05-05T11:57:20.942Z,101757.38
2023-05-05T11:59:53.542Z,101755.88
2023-05-05T12:02:21.153Z,101746.03
2023-05-05T12:04:48.386Z,101741.13
2023-05-05T12:07:16.687Z,101743.97
2023-05-05T12:09:47.020Z,101736.06
2023-05-05T12:12:14.284Z,101741.56
2023-05-05T12:14:52.466Z,101740.53
2023-05-05T12:17:21.117Z,101738.00
2023-05-05T12:19:55.181Z,101737.41
2023-05-05T12:22:27.190Z,101745.59
2023-05-05T12:24:55.384Z,101742.78
2023-05-05T12:27:22.383Z,101738.16
2023-05-05T12:29:49.122Z,101744.56
2023-05-05T12:32:27.624Z,101747.09
2023-05-05T12:34:57.581Z,101747.38
2023-05-05T12:37:27.538Z,101745.75
2023-05-05T12:39:55.028Z,101736.66
2023-05-05T12:42:22.617Z,101750.50
2023-05-05T12:44:49.476Z,101739.34
2023-05-05T12:47:30.777Z,101742.31
2023-05-05T12:49:58.839Z,101731.91
2023-05-05T12:52:40.707Z,101735.03
2023-05-05T12:55:07.689Z,101731.75
2023-05-05T12:57:34.401Z,101727.13
2023-05-05T13:00:13.547Z,101725.78
2023-05-05T13:02:40.074Z,101739.47
2023-05-05T13:05:07.299Z,101730.09
2023-05-05T13:07:34.010Z,101730.41
2023-05-05T13:10:09.077Z,101724.28
2023-05-05T13:12:35.714Z,101730.84
2023-05-05T13:15:02.147Z,101732.19
2023-05-05T13:17:28.714Z,101732.19
2023-05-05T13:19:55.319Z,101734.00
2023-05-05T13:22:21.880Z,101730.28
2023-05-05T13:24:52.431Z,101724.75
2023-05-05T13:27:20.245Z,101740.97
2023-05-05T13:29:47.859Z,101733.97
2023-05-05T13:32:14.459Z,101746.34
2023-05-05T13:34:42.495Z,101748.72
2023-05-05T13:37:08.963Z,101752.31
2023-05-05T13:39:35.880Z,101754.56
2023-05-05T13:42:02.760Z,101757.97
2023-05-05T13:44:29.231Z,101752.75
2023-05-05T13:46:55.714Z,101755.72
2023-05-05T13:49:22.382Z,101756.44
2023-05-05T13:51:48.917Z,101762.69
2023-05-05T13:54:15.449Z,101760.78
2023-05-05T13:56:42.117Z,101751.38
2023-05-05T13:59:09.104Z,101754.50
2023-05-05T14:01:35.716Z,101750.03
2023-05-05T14:04:05.166Z,101746.91
2023-05-05T14:06:32.648Z,101745.84
2023-05-05T14:08:59.442Z,101745.84
2023-05-05T14:11:25.973Z,101745.41
2023-05-05T14:13:52.793Z,101741.53
2023-05-05T14:16:19.356Z,101729.34
2023-05-05T14:18:45.843Z,101722.03
2023-05-05T14:21:12.284Z,101718.59
2023-05-05T14:23:38.820Z,101719.53
2023-05-05T14:26:05.336Z,101714.44
2023-05-05T14:28:31.823Z,101706.69
2023-05-05T14:30:58.322Z,101705.19
2023-05-05T14:33:24.778Z,101704.75
2023-05-05T14:35:51.489Z,101702.38
2023-05-05T14:38:18.305Z,101693.91
2023-05-05T14:40:44.927Z,101682.25
2023-05-05T14:43:11.395Z,101682.59
2023-05-05T14:45:37.953Z,101663.50
2023-05-05T14:48:04.556Z,101657.13
2023-05-05T14:50:31.241Z,101659.78
2023-05-05T14:52:57.952Z,101680.50
2023-05-05T14:55:25.046Z,101698.34
2023-05-05T14:57:51.902Z,101704.00
2023-05-05T15:00:18.986Z,101712.19
2023-05-05T15:02:45.703Z,101703.72
2023-05-05T15:05:12.355Z,101699.25
2023-05-05T15:07:40.016Z,101700.44
2023-05-05T15:10:07.568Z,101705.78
2023-05-05T15:12:34.318Z,101698.94
2023-05-05T15:15:00.890Z,101701.19
2023-05-05T15:17:27.469Z,101699.41
2023-05-05T15:19:53.915Z,101692.69
2023-05-05T15:22:20.350Z,101695.53
2023-05-05T15:24:46.762Z,101691.19
2023-05-05T15:27:13.424Z,101688.94
2023-05-05T15:29:39.842Z,101688.50
2023-05-05T15:32:06.367Z,101685.81
2023-05-05T15:34:32.829Z,101684.59
2023-05-05T15:36:59.289Z,101684.00
2023-05-05T15:39:25.855Z,101673.22
2023-05-05T15:41:55.159Z,101676.16
2023-05-05T15:44:21.968Z,101668.41
2023-05-05T15:46:50.509Z,101672.28
2023-05-05T15:49:17.181Z,101672.16
2023-05-05T15:51:43.580Z,101673.28
2023-05-05T15:54:10.073Z,101677.94
2023-05-05T15:56:36.531Z,101669.63
2023-05-05T15:59:03.293Z,101669.06
2023-05-05T16:01:29.796Z,101666.72
2023-05-05T16:03:57.874Z,101668.81
2023-05-05T16:06:24.365Z,101670.59
2023-05-05T16:08:51.677Z,101668.50
2023-05-05T16:11:19.471Z,101667.28
2023-05-05T16:13:47.085Z,101662.16
2023-05-05T16:16:13.818Z,101667.44
2023-05-05T16:18:40.352Z,101666.78
2023-05-05T16:21:06.792Z,101661.56
2023-05-05T16:23:33.405Z,101661.00
2023-05-05T16:25:59.915Z,101657.28
2023-05-05T16:28:26.739Z,101648.88
2023-05-05T16:30:53.177Z,101653.22
2023-05-05T16:33:19.583Z,101647.50
2023-05-05T16:35:46.333Z,101653.59
2023-05-05T16:38:13.474Z,101650.50
2023-05-05T16:40:40.367Z,101649.03
2023-05-05T16:43:06.904Z,101649.91
2023-05-05T16:45:33.445Z,101650.50
2023-05-05T16:47:59.940Z,101641.34
2023-05-05T16:50:26.764Z,101643.66
2023-05-05T16:52:53.176Z,101641.84
2023-05-05T16:55:22.398Z,101643.91
2023-05-05T16:57:48.902Z,101644.69
2023-05-05T17:00:15.560Z,101650.59
2023-05-05T17:02:42.254Z,101648.50
2023-05-05T17:05:09.538Z,101656.44
2023-05-05T17:07:36.279Z,101648.66
2023-05-05T17:10:02.719Z,101651.34
2023-05-05T17:12:29.194Z,101653.13
2023-05-05T17:14:55.762Z,101653.28
2023-05-05T17:17:22.316Z,101657.97
2023-05-05T17:19:49.022Z,101653.38
2023-05-05T17:22:15.433Z,101650.13
2023-05-05T17:24:42.787Z,101650.41
2023-05-05T17:27:09.325Z,101656.53
2023-05-05T17:29:40.693Z,101660.28
2023-05-05T17:32:08.928Z,101656.84
2023-05-05T17:34:35.581Z,101653.13
2023-05-05T17:37:02.212Z,101648.06
2023-05-05T17:39:29.892Z,101649.88
2023-05-05T17:41:56.546Z,101655.97
2023-05-05T17:44:23.431Z,101656.63
2023-05-05T17:46:49.980Z,101654.41
2023-05-05T17:49:16.496Z,101665.00
2023-05-05T17:51:42.931Z,101661.16
2023-05-05T17:54:09.430Z,101663.84
2023-05-05T17:56:36.760Z,101668.16
2023-05-05T17:59:03.249Z,101674.91
2023-05-05T18:01:29.752Z,101676.84
2023-05-05T18:03:56.476Z,101672.38
2023-05-05T18:06:22.904Z,101668.38
2023-05-05T18:08:49.345Z,101673.00
2023-05-05T18:11:15.831Z,101670.75
2023-05-05T18:13:43.162Z,101675.25
2023-05-05T18:16:09.680Z,101676.13
2023-05-05T18:18:36.281Z,101673.16
2023-05-05T18:21:02.711Z,101677.31
2023-05-05T18:23:29.218Z,101672.41
2023-05-05T18:25:55.728Z,101673.44
2023-05-05T18:28:22.265Z,101668.25
2023-05-05T18:30:48.798Z,101663.19
2023-05-05T18:33:15.233Z,101678.38
2023-05-05T18:35:41.717Z,101675.56
2023-05-05T18:38:08.217Z,101672.75
2023-05-05T18:40:34.656Z,101682.59
2023-05-05T18:43:01.145Z,101678.25
2023-05-05T18:45:27.669Z,101687.19
2023-05-05T18:47:54.149Z,101685.13
2023-05-05T18:50:20.653Z,101682.41
2023-05-05T18:52:47.142Z,101679.59
2023-05-05T18:55:13.583Z,101686.75
2023-05-05T18:57:40.369Z,101679.44
2023-05-05T19:00:07.531Z,101686.88
2023-05-05T19:02:34.012Z,101687.47
2023-05-05T19:05:00.843Z,101682.69
2023-05-05T19:07:35.297Z,101681.03
2023-05-05T19:10:14.764Z,101690.53
2023-05-05T19:12:41.426Z,101688.41
2023-05-05T19:15:08.677Z,101693.91
2023-05-05T19:17:35.306Z,101696.13
2023-05-05T19:20:02.007Z,101691.78
2023-05-05T19:22:28.630Z,101699.63
2023-05-05T19:24:55.142Z,101698.72
2023-05-05T19:27:21.647Z,101702.41
2023-05-05T19:29:52.474Z,101706.84
2023-05-05T19:32:21.489Z,101709.34
2023-05-05T19:34:48.162Z,101716.44
2023-05-05T19:37:14.734Z,101719.25
2023-05-05T19:39:44.087Z,101717.13
2023-05-05T19:42:10.627Z,101721.09
2023-05-05T19:44:37.116Z,101719.47
2023-05-05T19:47:04.584Z,101720.31
2023-05-05T19:49:31.035Z,101717.78
2023-05-05T19:51:58.753Z,101718.34
2023-05-05T19:54:25.541Z,101715.91
2023-05-05T19:56:52.060Z,101717.19
2023-05-05T19:59:18.571Z,101725.47
2023-05-05T20:01:45.055Z,101719.16
2023-05-05T20:04:11.680Z,101725.84
2023-05-05T20:06:38.360Z,101727.53
2023-05-05T20:09:05.214Z,101725.41
2023-05-05T20:11:32.135Z,101722.09
2023-05-05T20:13:58.636Z,101726.50
2023-05-05T20:16:25.689Z,101734.63
2023-05-05T20:18:52.213Z,101725.22
2023-05-05T20:21:18.837Z,101731.44
2023-05-05T20:23:46.131Z,101729.31
2023-05-05T20:26:12.963Z,101727.63
2023-05-05T20:28:41.827Z,101741.09
2023-05-05T20:31:10.792Z,101733.31
2023-05-05T20:33:37.532Z,101735.75
2023-05-05T20:36:04.326Z,101737.47
2023-05-05T20:38:31.115Z,101738.00
2023-05-05T20:40:57.691Z,101737.03
2023-05-05T20:43:24.958Z,101734.81
2023-05-05T20:45:51.673Z,101730.75
2023-05-05T20:48:18.260Z,101734.72
2023-05-05T20:50:44.746Z,101732.13
2023-05-05T20:53:13.855Z,101732.56
2023-05-05T20:55:40.694Z,101727.75
2023-05-05T20:58:07.390Z,101719.09
2023-05-05T21:00:34.029Z,101720.38
2023-05-05T21:03:02.434Z,101714.72
2023-05-05T21:05:31.444Z,101718.66
2023-05-05T21:07:59.229Z,101719.31
2023-05-05T21:10:29.942Z,101716.41
2023-05-05T21:12:56.590Z,101720.34
2023-05-05T21:15:23.246Z,101728.34
2023-05-05T21:17:49.737Z,101722.47
2023-05-05T21:20:16.968Z,101719.84
2023-05-05T21:22:43.441Z,101712.38
2023-05-05T21:25:11.735Z,101715.47
2023-05-05T21:27:38.150Z,101714.38
2023-05-05T21:30:05.153Z,101717.47
2023-05-05T21:32:31.631Z,101714.06
2023-05-05T21:34:58.156Z,101719.19
2023-05-05T21:37:24.583Z,101721.53
2023-05-05T21:39:51.508Z,101718.22
2023-05-05T21:42:18.020Z,101715.63
2023-05-05T21:44:44.505Z,101719.47
2023-05-05T21:47:11.252Z,101716.56
2023-05-05T21:49:37.789Z,101717.81
2023-05-05T21:52:04.197Z,101713.66
2023-05-05T21:54:30.638Z,101713.75
2023-05-05T21:56:57.136Z,101717.69
2023-05-05T21:59:23.699Z,101718.72
2023-05-05T22:01:50.376Z,101718.81
2023-05-05T22:04:16.928Z,101708.97
2023-05-05T22:06:43.472Z,101705.56
2023-05-05T22:09:10.102Z,101711.31
2023-05-05T22:11:36.650Z,101703.81
2023-05-05T22:14:03.142Z,101713.06
2023-05-05T22:16:29.884Z,101709.31
2023-05-05T22:18:56.852Z,101703.75
2023-05-05T22:21:23.373Z,101715.66
2023-05-05T22:23:49.864Z,101711.81
2023-05-05T22:26:16.288Z,101714.50
2023-05-05T22:28:42.815Z,101714.56
2023-05-05T22:31:09.368Z,101712.25
2023-05-05T22:33:36.206Z,101709.56
2023-05-05T22:36:02.681Z,101705.75
2023-05-05T22:38:29.188Z,101704.25
2023-05-05T22:40:55.649Z,101706.91
2023-05-05T22:43:22.186Z,101710.75
2023-05-05T22:45:48.860Z,101704.66
2023-05-05T22:48:15.387Z,101711.50
2023-05-05T22:50:41.926Z,101711.06
2023-05-05T22:53:08.452Z,101707.66
2023-05-05T22:55:34.996Z,101709.50
2023-05-05T22:58:01.428Z,101714.06
2023-05-05T23:00:28.198Z,101707.56
2023-05-05T23:02:54.935Z,101705.75
2023-05-05T23:05:22.012Z,101698.91
2023-05-05T23:07:48.575Z,101702.00
2023-05-05T23:10:15.080Z,101697.84
2023-05-05T23:12:41.720Z,101701.25
2023-05-05T23:15:09.893Z,101691.34
2023-05-05T23:17:36.708Z,101702.00
2023-05-05T23:20:04.206Z,101694.75
2023-05-05T23:22:30.666Z,101694.34
2023-05-05T23:24:57.179Z,101699.66
2023-05-05T23:27:23.733Z,101701.16
2023-05-05T23:29:50.132Z,101690.19
2023-05-05T23:32:16.622Z,101691.34
2023-05-05T23:34:43.108Z,101694.44
2023-05-05T23:37:09.564Z,101691.88
2023-05-05T23:39:36.016Z,101693.44
2023-05-05T23:42:02.471Z,101692.69
2023-05-05T23:44:28.971Z,101694.63
2023-05-05T23:46:55.426Z,101699.19
2023-05-05T23:49:22.206Z,101696.19
2023-05-05T23:51:48.630Z,101692.03
2023-05-05T23:54:15.117Z,101688.28
2023-05-05T23:56:42.520Z,101687.97
2023-05-05T23:59:09.018Z,101684.22
